sensor_id;sensor_type;location;lat;lon;timestamp;pressure;altitude;pressure_sealevel;temperature;humidity
83633;BME280;73595;53.084;6.696;2024-01-07T00:00:06;102024.44;;;-1.08;96.11
83633;BME280;73595;53.084;6.696;2024-01-07T00:02:31;102048.16;;;-0.95;96.11
83633;BME280;73595;53.084;6.696;2024-01-07T00:04:56;102046.59;;;-0.99;95.78
83633;BME280;73595;53.084;6.696;2024-01-07T00:07:24;102049.84;;;-0.94;95.76
83633;BME280;73595;53.084;6.696;2024-01-07T00:09:49;102065.56;;;-0.97;95.62
83633;BME280;73595;53.084;6.696;2024-01-07T00:12:14;102064.03;;;-1.01;95.39
83633;BME280;73595;53.084;6.696;2024-01-07T00:14:40;102057.91;;;-1.00;94.70
83633;BME280;73595;53.084;6.696;2024-01-07T00:17:05;102057.66;;;-0.94;95.32
83633;BME280;73595;53.084;6.696;2024-01-07T00:19:31;102052.19;;;-1.08;94.88
83633;BME280;73595;53.084;6.696;2024-01-07T00:21:57;102051.97;;;-1.04;94.35
83633;BME280;73595;53.084;6.696;2024-01-07T00:24:22;102066.47;;;-0.98;94.34
83633;BME280;73595;53.084;6.696;2024-01-07T00:26:51;102056.34;;;-1.04;94.27
83633;BME280;73595;53.084;6.696;2024-01-07T00:29:16;102064.88;;;-1.01;94.05
83633;BME280;73595;53.084;6.696;2024-01-07T00:31:41;102057.41;;;-1.08;94.81
83633;BME280;73595;53.084;6.696;2024-01-07T00:34:07;102081.91;;;-0.94;94.34
83633;BME280;73595;53.084;6.696;2024-01-07T00:36:33;102051.59;;;-1.15;93.36
83633;BME280;73595;53.084;6.696;2024-01-07T00:38:58;102085.53;;;-0.98;93.33
83633;BME280;73595;53.084;6.696;2024-01-07T00:41:24;102066.56;;;-1.00;94.24
83633;BME280;73595;53.084;6.696;2024-01-07T00:43:50;102092.31;;;-0.94;94.70
83633;BME280;73595;53.084;6.696;2024-01-07T00:46:15;102095.81;;;-0.95;93.92
83633;BME280;73595;53.084;6.696;2024-01-07T00:48:42;102085.09;;;-1.07;94.37
83633;BME280;73595;53.084;6.696;2024-01-07T00:51:07;102075.84;;;-1.15;94.41
83633;BME280;73595;53.084;6.696;2024-01-07T00:53:32;102097.03;;;-1.03;94.40
83633;BME280;73595;53.084;6.696;2024-01-07T00:55:58;102072.78;;;-1.24;94.80
83633;BME280;73595;53.084;6.696;2024-01-07T00:58:24;102070.25;;;-1.26;95.07
83633;BME280;73595;53.084;6.696;2024-01-07T01:00:49;102094.16;;;-1.18;94.97
83633;BME280;73595;53.084;6.696;2024-01-07T01:03:15;102093.22;;;-1.15;94.72
83633;BME280;73595;53.084;6.696;2024-01-07T01:05:40;102098.78;;;-1.24;94.81
83633;BME280;73595;53.084;6.696;2024-01-07T01:08:05;102101.19;;;-1.20;94.93
83633;BME280;73595;53.084;6.696;2024-01-07T01:10:31;102110.59;;;-1.17;94.55
83633;BME280;73595;53.084;6.696;2024-01-07T01:12:56;102124.16;;;-1.09;94.66
83633;BME280;73595;53.084;6.696;2024-01-07T01:15:21;102113.28;;;-1.19;94.42
83633;BME280;73595;53.084;6.696;2024-01-07T01:17:47;102121.75;;;-1.14;94.33
83633;BME280;73595;53.084;6.696;2024-01-07T01:20:12;102126.16;;;-1.16;94.70
83633;BME280;73595;53.084;6.696;2024-01-07T01:22:39;102094.81;;;-1.33;94.98
83633;BME280;73595;53.084;6.696;2024-01-07T01:25:05;102137.22;;;-1.11;94.13
83633;BME280;73595;53.084;6.696;2024-01-07T01:27:30;102120.16;;;-1.18;94.01
83633;BME280;73595;53.084;6.696;2024-01-07T01:29:57;102138.25;;;-1.15;94.13
83633;BME280;73595;53.084;6.696;2024-01-07T01:32:25;102117.03;;;-1.26;94.39
83633;BME280;73595;53.084;6.696;2024-01-07T01:34:50;102147.00;;;-1.17;93.68
83633;BME280;73595;53.084;6.696;2024-01-07T01:37:16;102127.31;;;-1.23;93.55
83633;BME280;73595;53.084;6.696;2024-01-07T01:39:42;102099.56;;;-1.44;93.23
83633;BME280;73595;53.084;6.696;2024-01-07T01:42:08;102159.00;;;-1.13;94.01
83633;BME280;73595;53.084;6.696;2024-01-07T01:44:34;102159.84;;;-1.13;93.23
83633;BME280;73595;53.084;6.696;2024-01-07T01:46:59;102162.38;;;-1.11;93.68
83633;BME280;73595;53.084;6.696;2024-01-07T01:49:26;102153.19;;;-1.20;93.70
83633;BME280;73595;53.084;6.696;2024-01-07T01:51:52;102129.50;;;-1.34;93.94
83633;BME280;73595;53.084;6.696;2024-01-07T01:54:18;102153.38;;;-1.24;93.83
83633;BME280;73595;53.084;6.696;2024-01-07T01:56:45;102164.44;;;-1.19;93.25
83633;BME280;73595;53.084;6.696;2024-01-07T01:59:11;102148.47;;;-1.32;93.49
83633;BME280;73595;53.084;6.696;2024-01-07T02:01:37;102129.19;;;-1.48;93.67
83633;BME280;73595;53.084;6.696;2024-01-07T02:04:02;102176.66;;;-1.21;93.73
83633;BME280;73595;53.084;6.696;2024-01-07T02:06:28;102165.75;;;-1.31;93.00
83633;BME280;73595;53.084;6.696;2024-01-07T02:08:54;102173.31;;;-1.25;93.55
83633;BME280;73595;53.084;6.696;2024-01-07T02:11:21;102178.47;;;-1.23;92.80
83633;BME280;73595;53.084;6.696;2024-01-07T02:13:47;102200.00;;;-1.20;92.90
83633;BME280;73595;53.084;6.696;2024-01-07T02:16:13;102187.31;;;-1.27;93.21
83633;BME280;73595;53.084;6.696;2024-01-07T02:18:43;102189.00;;;-1.26;93.33
83633;BME280;73595;53.084;6.696;2024-01-07T02:21:25;102143.28;;;-1.54;92.91
83633;BME280;73595;53.084;6.696;2024-01-07T02:23:53;102200.09;;;-1.23;93.33
83633;BME280;73595;53.084;6.696;2024-01-07T02:26:20;102202.47;;;-1.17;93.18
83633;BME280;73595;53.084;6.696;2024-01-07T02:28:45;102183.03;;;-1.28;93.41
83633;BME280;73595;53.084;6.696;2024-01-07T02:31:11;102189.78;;;-1.24;93.53
83633;BME280;73595;53.084;6.696;2024-01-07T02:33:36;102207.03;;;-1.22;92.71
83633;BME280;73595;53.084;6.696;2024-01-07T02:36:01;102192.50;;;-1.27;92.76
83633;BME280;73595;53.084;6.696;2024-01-07T02:38:28;102189.06;;;-1.28;91.75
83633;BME280;73595;53.084;6.696;2024-01-07T02:40:53;102208.47;;;-1.15;90.99
83633;BME280;73595;53.084;6.696;2024-01-07T02:43:19;102189.78;;;-1.24;92.01
83633;BME280;73595;53.084;6.696;2024-01-07T02:45:44;102206.03;;;-1.19;91.94
83633;BME280;73595;53.084;6.696;2024-01-07T02:48:09;102197.63;;;-1.26;91.93
83633;BME280;73595;53.084;6.696;2024-01-07T02:50:35;102218.06;;;-1.17;91.69
83633;BME280;73595;53.084;6.696;2024-01-07T02:53:00;102219.13;;;-1.21;90.09
83633;BME280;73595;53.084;6.696;2024-01-07T02:55:25;102151.41;;;-1.63;90.47
83633;BME280;73595;53.084;6.696;2024-01-07T02:57:51;102201.00;;;-1.24;90.37
83633;BME280;73595;53.084;6.696;2024-01-07T03:00:16;102197.03;;;-1.32;90.27
83633;BME280;73595;53.084;6.696;2024-01-07T03:02:43;102217.69;;;-1.29;90.09
83633;BME280;73595;53.084;6.696;2024-01-07T03:05:09;102217.75;;;-1.31;89.58
83633;BME280;73595;53.084;6.696;2024-01-07T03:07:34;102137.22;;;-1.76;90.53
83633;BME280;73595;53.084;6.696;2024-01-07T03:10:00;102202.47;;;-1.39;89.65
83633;BME280;73595;53.084;6.696;2024-01-07T03:12:25;102222.13;;;-1.31;90.83
83633;BME280;73595;53.084;6.696;2024-01-07T03:14:52;102155.22;;;-1.72;89.31
83633;BME280;73595;53.084;6.696;2024-01-07T03:17:17;102176.63;;;-1.65;89.38
83633;BME280;73595;53.084;6.696;2024-01-07T03:19:43;102249.34;;;-1.18;89.11
83633;BME280;73595;53.084;6.696;2024-01-07T03:22:08;102231.59;;;-1.30;89.59
83633;BME280;73595;53.084;6.696;2024-01-07T03:24:34;102183.34;;;-1.59;89.30
83633;BME280;73595;53.084;6.696;2024-01-07T03:26:59;102111.75;;;-2.13;87.93
83633;BME280;73595;53.084;6.696;2024-01-07T03:29:25;102266.00;;;-1.24;88.99
83633;BME280;73595;53.084;6.696;2024-01-07T03:31:50;102222.72;;;-1.47;88.76
83633;BME280;73595;53.084;6.696;2024-01-07T03:34:16;102273.59;;;-1.18;89.28
83633;BME280;73595;53.084;6.696;2024-01-07T03:36:42;102278.78;;;-1.18;89.82
83633;BME280;73595;53.084;6.696;2024-01-07T03:39:09;102251.63;;;-1.32;86.63
83633;BME280;73595;53.084;6.696;2024-01-07T03:41:34;102272.91;;;-1.23;88.69
83633;BME280;73595;53.084;6.696;2024-01-07T03:44:01;102249.31;;;-1.40;87.93
83633;BME280;73595;53.084;6.696;2024-01-07T03:46:27;102288.28;;;-1.17;89.12
83633;BME280;73595;53.084;6.696;2024-01-07T03:48:53;102230.69;;;-1.51;87.97
83633;BME280;73595;53.084;6.696;2024-01-07T03:51:18;102289.13;;;-1.16;88.25
83633;BME280;73595;53.084;6.696;2024-01-07T03:53:43;102282.47;;;-1.23;88.72
83633;BME280;73595;53.084;6.696;2024-01-07T03:56:08;102282.66;;;-1.28;88.88
83633;BME280;73595;53.084;6.696;2024-01-07T03:58:34;102180.19;;;-1.91;87.67
83633;BME280;73595;53.084;6.696;2024-01-07T04:01:00;102295.53;;;-1.25;88.70
83633;BME280;73595;53.084;6.696;2024-01-07T04:03:25;102290.31;;;-1.25;86.98
83633;BME280;73595;53.084;6.696;2024-01-07T04:05:51;102310.72;;;-1.14;88.06
83633;BME280;73595;53.084;6.696;2024-01-07T04:08:16;102295.44;;;-1.22;88.09
83633;BME280;73595;53.084;6.696;2024-01-07T04:10:41;102294.63;;;-1.24;88.37
83633;BME280;73595;53.084;6.696;2024-01-07T04:13:07;102298.06;;;-1.23;87.55
83633;BME280;73595;53.084;6.696;2024-01-07T04:15:33;102317.72;;;-1.16;87.97
83633;BME280;73595;53.084;6.696;2024-01-07T04:18:01;102310.81;;;-1.16;87.71
83633;BME280;73595;53.084;6.696;2024-01-07T04:20:29;102308.44;;;-1.22;87.81
83633;BME280;73595;53.084;6.696;2024-01-07T04:22:54;102312.59;;;-1.18;86.69
83633;BME280;73595;53.084;6.696;2024-01-07T04:25:20;102309.31;;;-1.23;86.54
83633;BME280;73595;53.084;6.696;2024-01-07T04:27:45;102310.22;;;-1.24;87.53
83633;BME280;73595;53.084;6.696;2024-01-07T04:30:10;102301.03;;;-1.32;87.17
83633;BME280;73595;53.084;6.696;2024-01-07T04:32:36;102303.78;;;-1.37;87.27
83633;BME280;73595;53.084;6.696;2024-01-07T04:35:03;102324.25;;;-1.28;86.36
83633;BME280;73595;53.084;6.696;2024-01-07T04:37:29;102324.19;;;-1.26;85.74
83633;BME280;73595;53.084;6.696;2024-01-07T04:39:55;102292.06;;;-1.49;87.54
83633;BME280;73595;53.084;6.696;2024-01-07T04:42:20;102288.84;;;-1.55;86.59
83633;BME280;73595;53.084;6.696;2024-01-07T04:44:45;102208.44;;;-2.05;85.95
83633;BME280;73595;53.084;6.696;2024-01-07T04:47:32;102334.59;;;-1.26;84.88
83633;BME280;73595;53.084;6.696;2024-01-07T04:49:59;102304.34;;;-1.52;84.69
83633;BME280;73595;53.084;6.696;2024-01-07T04:52:26;102344.16;;;-1.27;86.16
83633;BME280;73595;53.084;6.696;2024-01-07T04:54:55;102343.47;;;-1.32;85.15
83633;BME280;73595;53.084;6.696;2024-01-07T04:57:21;102366.28;;;-1.17;85.16
83633;BME280;73595;53.084;6.696;2024-01-07T04:59:47;102368.16;;;-1.20;84.17
83633;BME280;73595;53.084;6.696;2024-01-07T05:02:13;102351.38;;;-1.35;86.04
83633;BME280;73595;53.084;6.696;2024-01-07T05:04:39;102302.41;;;-1.71;84.36
83633;BME280;73595;53.084;6.696;2024-01-07T05:07:06;102384.63;;;-1.20;85.33
83633;BME280;73595;53.084;6.696;2024-01-07T05:09:32;102389.81;;;-1.20;84.67
83633;BME280;73595;53.084;6.696;2024-01-07T05:11:58;102396.56;;;-1.14;85.65
83633;BME280;73595;53.084;6.696;2024-01-07T05:14:23;102278.78;;;-1.88;84.93
83633;BME280;73595;53.084;6.696;2024-01-07T05:16:49;102383.25;;;-1.30;84.47
83633;BME280;73595;53.084;6.696;2024-01-07T05:19:14;102384.94;;;-1.29;82.80
83633;BME280;73595;53.084;6.696;2024-01-07T05:21:40;102388.34;;;-1.27;84.35
83633;BME280;73595;53.084;6.696;2024-01-07T05:24:05;102389.34;;;-1.31;85.74
83633;BME280;73595;53.084;6.696;2024-01-07T05:26:31;102415.81;;;-1.20;85.03
83633;BME280;73595;53.084;6.696;2024-01-07T05:28:56;102404.63;;;-1.22;85.45
83633;BME280;73595;53.084;6.696;2024-01-07T05:31:23;102404.84;;;-1.28;86.47
83633;BME280;73595;53.084;6.696;2024-01-07T05:33:48;102384.56;;;-1.42;84.50
83633;BME280;73595;53.084;6.696;2024-01-07T05:36:15;102413.22;;;-1.20;85.23
83633;BME280;73595;53.084;6.696;2024-01-07T05:38:43;102422.00;;;-1.22;84.34
83633;BME280;73595;53.084;6.696;2024-01-07T05:41:09;102419.44;;;-1.24;85.47
83633;BME280;73595;53.084;6.696;2024-01-07T05:43:35;102424.75;;;-1.27;83.56
83633;BME280;73595;53.084;6.696;2024-01-07T05:46:02;102430.84;;;-1.28;85.74
83633;BME280;73595;53.084;6.696;2024-01-07T05:48:35;102306.06;;;-2.01;85.97
83633;BME280;73595;53.084;6.696;2024-01-07T05:51:05;102452.00;;;-1.14;85.81
83633;BME280;73595;53.084;6.696;2024-01-07T05:53:30;102435.31;;;-1.31;85.91
83633;BME280;73595;53.084;6.696;2024-01-07T05:55:56;102414.09;;;-1.44;86.17
83633;BME280;73595;53.084;6.696;2024-01-07T05:58:21;102470.44;;;-1.20;85.96
83633;BME280;73595;53.084;6.696;2024-01-07T06:00:47;102469.66;;;-1.22;86.07
83633;BME280;73595;53.084;6.696;2024-01-07T06:03:12;102455.03;;;-1.26;85.33
83633;BME280;73595;53.084;6.696;2024-01-07T06:05:38;102479.88;;;-1.17;81.92
83633;BME280;73595;53.084;6.696;2024-01-07T06:08:04;102483.59;;;-1.24;83.68
83633;BME280;73595;53.084;6.696;2024-01-07T06:10:30;102455.41;;;-1.37;85.64
83633;BME280;73595;53.084;6.696;2024-01-07T06:12:55;102477.59;;;-1.26;85.47
83633;BME280;73595;53.084;6.696;2024-01-07T06:15:20;102487.88;;;-1.23;84.09
83633;BME280;73595;53.084;6.696;2024-01-07T06:17:45;102500.66;;;-1.17;85.53
83633;BME280;73595;53.084;6.696;2024-01-07T06:20:11;102465.97;;;-1.41;83.93
83633;BME280;73595;53.084;6.696;2024-01-07T06:22:36;102496.84;;;-1.32;84.31
83633;BME280;73595;53.084;6.696;2024-01-07T06:25:05;102505.16;;;-1.21;84.02
83633;BME280;73595;53.084;6.696;2024-01-07T06:27:30;102495.94;;;-1.31;84.74
83633;BME280;73595;53.084;6.696;2024-01-07T06:29:56;102503.47;;;-1.23;83.21
83633;BME280;73595;53.084;6.696;2024-01-07T06:32:21;102507.84;;;-1.24;82.64
83633;BME280;73595;53.084;6.696;2024-01-07T06:34:46;102497.69;;;-1.31;83.47
83633;BME280;73595;53.084;6.696;2024-01-07T06:37:12;102525.09;;;-1.21;82.35
83633;BME280;73595;53.084;6.696;2024-01-07T06:39:37;102523.41;;;-1.22;83.49
83633;BME280;73595;53.084;6.696;2024-01-07T06:42:03;102513.31;;;-1.31;84.24
83633;BME280;73595;53.084;6.696;2024-01-07T06:44:29;102505.97;;;-1.45;81.89
83633;BME280;73595;53.084;6.696;2024-01-07T06:46:54;102527.16;;;-1.31;82.83
83633;BME280;73595;53.084;6.696;2024-01-07T06:49:19;102544.22;;;-1.22;83.97
83633;BME280;73595;53.084;6.696;2024-01-07T06:51:45;102514.34;;;-1.37;83.08
83633;BME280;73595;53.084;6.696;2024-01-07T06:54:10;102551.03;;;-1.20;83.46
83633;BME280;73595;53.084;6.696;2024-01-07T06:56:36;102505.31;;;-1.52;83.76
83633;BME280;73595;53.084;6.696;2024-01-07T06:59:01;102554.00;;;-1.30;82.12
83633;BME280;73595;53.084;6.696;2024-01-07T07:01:27;102548.84;;;-1.32;82.80
83633;BME280;73595;53.084;6.696;2024-01-07T07:03:52;102560.75;;;-1.25;82.49
83633;BME280;73595;53.084;6.696;2024-01-07T07:06:17;102543.97;;;-1.41;83.61
83633;BME280;73595;53.084;6.696;2024-01-07T07:08:43;102563.66;;;-1.34;83.77
83633;BME280;73595;53.084;6.696;2024-01-07T07:11:08;102578.88;;;-1.23;82.73
83633;BME280;73595;53.084;6.696;2024-01-07T07:13:34;102576.53;;;-1.31;83.64
83633;BME280;73595;53.084;6.696;2024-01-07T07:16:00;102578.34;;;-1.33;81.26
83633;BME280;73595;53.084;6.696;2024-01-07T07:18:25;102572.69;;;-1.46;82.13
83633;BME280;73595;53.084;6.696;2024-01-07T07:20:51;102587.84;;;-1.32;82.89
83633;BME280;73595;53.084;6.696;2024-01-07T07:23:16;102570.19;;;-1.49;82.73
83633;BME280;73595;53.084;6.696;2024-01-07T07:25:42;102602.69;;;-1.36;82.76
83633;BME280;73595;53.084;6.696;2024-01-07T07:28:07;102586.88;;;-1.56;82.81
83633;BME280;73595;53.084;6.696;2024-01-07T07:30:32;102518.94;;;-1.98;82.57
83633;BME280;73595;53.084;6.696;2024-01-07T07:32:58;102614.28;;;-1.46;83.17
83633;BME280;73595;53.084;6.696;2024-01-07T07:35:23;102616.56;;;-1.63;83.73
83633;BME280;73595;53.084;6.696;2024-01-07T07:37:48;102628.69;;;-1.64;83.12
83633;BME280;73595;53.084;6.696;2024-01-07T07:40:14;102632.81;;;-1.56;83.31
83633;BME280;73595;53.084;6.696;2024-01-07T07:42:39;102644.03;;;-1.54;82.86
83633;BME280;73595;53.084;6.696;2024-01-07T07:45:05;102647.06;;;-1.70;82.93
83633;BME280;73595;53.084;6.696;2024-01-07T07:47:30;102652.09;;;-1.64;82.58
83633;BME280;73595;53.084;6.696;2024-01-07T07:49:56;102625.00;;;-1.84;82.35
83633;BME280;73595;53.084;6.696;2024-01-07T07:52:21;102655.66;;;-1.68;82.55
83633;BME280;73595;53.084;6.696;2024-01-07T07:54:51;102653.31;;;-1.75;82.27
83633;BME280;73595;53.084;6.696;2024-01-07T07:57:16;102547.97;;;-2.43;82.51
83633;BME280;73595;53.084;6.696;2024-01-07T07:59:41;102681.75;;;-1.71;82.89
83633;BME280;73595;53.084;6.696;2024-01-07T08:02:07;102664.81;;;-1.84;82.68
83633;BME280;73595;53.084;6.696;2024-01-07T08:04:33;102663.38;;;-1.94;84.20
83633;BME280;73595;53.084;6.696;2024-01-07T08:06:58;102687.09;;;-1.75;83.55
83633;BME280;73595;53.084;6.696;2024-01-07T08:09:25;102677.03;;;-1.86;83.53
83633;BME280;73595;53.084;6.696;2024-01-07T08:11:51;102688.44;;;-1.92;83.60
83633;BME280;73595;53.084;6.696;2024-01-07T08:14:17;102712.13;;;-1.73;83.47
83633;BME280;73595;53.084;6.696;2024-01-07T08:16:42;102703.69;;;-1.79;83.96
83633;BME280;73595;53.084;6.696;2024-01-07T08:19:07;102709.53;;;-1.73;84.15
83633;BME280;73595;53.084;6.696;2024-01-07T08:21:32;102701.06;;;-1.79;83.48
83633;BME280;73595;53.084;6.696;2024-01-07T08:23:58;102611.50;;;-2.25;82.01
83633;BME280;73595;53.084;6.696;2024-01-07T08:26:24;102706.66;;;-1.64;84.17
83633;BME280;73595;53.084;6.696;2024-01-07T08:28:49;102714.16;;;-1.53;82.13
83633;BME280;73595;53.084;6.696;2024-01-07T08:31:21;102686.78;;;-1.65;82.74
83633;BME280;73595;53.084;6.696;2024-01-07T08:33:46;102687.44;;;-1.58;82.90
83633;BME280;73595;53.084;6.696;2024-01-07T08:36:11;102636.56;;;-1.95;83.40
83633;BME280;73595;53.084;6.696;2024-01-07T08:38:37;102689.38;;;-1.65;82.38
83633;BME280;73595;53.084;6.696;2024-01-07T08:41:02;102736.28;;;-1.40;82.42
83633;BME280;73595;53.084;6.696;2024-01-07T08:43:27;102697.06;;;-1.61;82.03
83633;BME280;73595;53.084;6.696;2024-01-07T08:45:53;102721.63;;;-1.42;81.78
83633;BME280;73595;53.084;6.696;2024-01-07T08:48:18;102744.66;;;-1.30;82.51
83633;BME280;73595;53.084;6.696;2024-01-07T08:50:43;102734.25;;;-1.30;82.89
83633;BME280;73595;53.084;6.696;2024-01-07T08:53:09;102721.78;;;-1.47;82.45
83633;BME280;73595;53.084;6.696;2024-01-07T08:55:34;102725.09;;;-1.42;82.91
83633;BME280;73595;53.084;6.696;2024-01-07T08:57:59;102757.66;;;-1.30;83.82
83633;BME280;73595;53.084;6.696;2024-01-07T09:00:25;102747.34;;;-1.33;83.22
83633;BME280;73595;53.084;6.696;2024-01-07T09:02:54;102744.88;;;-1.38;82.82
83633;BME280;73595;53.084;6.696;2024-01-07T09:05:20;102754.97;;;-1.27;82.70
83633;BME280;73595;53.084;6.696;2024-01-07T09:07:45;102757.38;;;-1.21;82.45
83633;BME280;73595;53.084;6.696;2024-01-07T09:10:10;102755.91;;;-1.29;82.74
83633;BME280;73595;53.084;6.696;2024-01-07T09:12:38;102740.63;;;-1.40;83.00
83633;BME280;73595;53.084;6.696;2024-01-07T09:15:04;102783.22;;;-1.15;83.18
83633;BME280;73595;53.084;6.696;2024-01-07T09:17:34;102776.50;;;-1.22;83.49
83633;BME280;73595;53.084;6.696;2024-01-07T09:19:59;102785.84;;;-1.16;83.59
83633;BME280;73595;53.084;6.696;2024-01-07T09:22:24;102773.97;;;-1.25;83.19
83633;BME280;73595;53.084;6.696;2024-01-07T09:24:49;102767.06;;;-1.26;83.11
83633;BME280;73595;53.084;6.696;2024-01-07T09:27:15;102772.22;;;-1.24;82.45
83633;BME280;73595;53.084;6.696;2024-01-07T09:29:40;102776.31;;;-1.16;82.43
83633;BME280;73595;53.084;6.696;2024-01-07T09:32:06;102782.38;;;-1.15;82.37
83633;BME280;73595;53.084;6.696;2024-01-07T09:34:33;102797.50;;;-1.00;82.83
83633;BME280;73595;53.084;6.696;2024-01-07T09:37:01;102799.13;;;-0.97;81.37
83633;BME280;73595;53.084;6.696;2024-01-07T09:39:27;102783.81;;;-1.06;82.27
83633;BME280;73595;53.084;6.696;2024-01-07T09:41:53;102797.38;;;-0.95;82.54
83633;BME280;73595;53.084;6.696;2024-01-07T09:44:19;102782.00;;;-1.03;81.51
83633;BME280;73595;53.084;6.696;2024-01-07T09:46:44;102786.13;;;-0.97;81.04
83633;BME280;73595;53.084;6.696;2024-01-07T09:49:14;102807.47;;;-0.86;79.36
83633;BME280;73595;53.084;6.696;2024-01-07T09:51:40;102808.91;;;-0.76;79.89
83633;BME280;73595;53.084;6.696;2024-01-07T09:54:11;102793.75;;;-0.91;80.03
83633;BME280;73595;53.084;6.696;2024-01-07T09:56:42;102819.31;;;-0.76;79.50
83633;BME280;73595;53.084;6.696;2024-01-07T09:59:13;102790.34;;;-0.93;79.18
83633;BME280;73595;53.084;6.696;2024-01-07T10:01:39;102797.78;;;-0.81;78.15
83633;BME280;73595;53.084;6.696;2024-01-07T10:04:05;102797.72;;;-0.79;77.77
83633;BME280;73595;53.084;6.696;2024-01-07T10:06:31;102807.28;;;-0.80;78.39
83633;BME280;73595;53.084;6.696;2024-01-07T10:08:58;102813.06;;;-0.70;79.37
83633;BME280;73595;53.084;6.696;2024-01-07T10:11:23;102818.16;;;-0.67;78.51
83633;BME280;73595;53.084;6.696;2024-01-07T10:13:48;102812.22;;;-0.71;78.40
83633;BME280;73595;53.084;6.696;2024-01-07T10:16:16;102805.22;;;-0.69;79.16
83633;BME280;73595;53.084;6.696;2024-01-07T10:18:41;102828.34;;;-0.60;78.31
83633;BME280;73595;53.084;6.696;2024-01-07T10:21:07;102814.66;;;-0.66;77.45
83633;BME280;73595;53.084;6.696;2024-01-07T10:23:32;102820.72;;;-0.66;78.44
83633;BME280;73595;53.084;6.696;2024-01-07T10:25:58;102811.22;;;-0.67;76.83
83633;BME280;73595;53.084;6.696;2024-01-07T10:28:23;102838.47;;;-0.50;79.76
83633;BME280;73595;53.084;6.696;2024-01-07T10:30:49;102829.09;;;-0.56;78.45
83633;BME280;73595;53.084;6.696;2024-01-07T10:33:17;102814.59;;;-0.63;79.77
83633;BME280;73595;53.084;6.696;2024-01-07T10:35:48;102812.72;;;-0.60;79.38
83633;BME280;73595;53.084;6.696;2024-01-07T10:38:16;102817.00;;;-0.59;77.05
83633;BME280;73595;53.084;6.696;2024-01-07T10:40:43;102839.97;;;-0.43;77.83
83633;BME280;73595;53.084;6.696;2024-01-07T10:43:10;102837.06;;;-0.34;78.13
83633;BME280;73595;53.084;6.696;2024-01-07T10:45:38;102793.75;;;-0.63;78.20
83633;BME280;73595;53.084;6.696;2024-01-07T10:48:04;102810.72;;;-0.25;78.35
83633;BME280;73595;53.084;6.696;2024-01-07T10:50:33;102829.44;;;-0.14;77.16
83633;BME280;73595;53.084;6.696;2024-01-07T10:53:04;102814.00;;;-0.20;77.88
83633;BME280;73595;53.084;6.696;2024-01-07T10:55:34;102843.53;;;0.06;74.76
83633;BME280;73595;53.084;6.696;2024-01-07T10:58:03;102816.81;;;0.01;73.79
83633;BME280;73595;53.084;6.696;2024-01-07T11:00:30;102817.88;;;0.20;75.39
83633;BME280;73595;53.084;6.696;2024-01-07T11:03:22;102848.06;;;0.50;76.09
83633;BME280;73595;53.084;6.696;2024-01-07T11:06:11;102830.44;;;0.09;76.89
83633;BME280;73595;53.084;6.696;2024-01-07T11:09:03;102836.56;;;0.06;76.83
83633;BME280;73595;53.084;6.696;2024-01-07T11:11:55;102822.88;;;0.01;76.70
83633;BME280;73595;53.084;6.696;2024-01-07T11:14:38;102855.03;;;0.50;75.72
83633;BME280;73595;53.084;6.696;2024-01-07T11:17:09;102848.69;;;0.34;76.39
83633;BME280;73595;53.084;6.696;2024-01-07T11:19:49;102846.91;;;0.34;76.58
83633;BME280;73595;53.084;6.696;2024-01-07T11:22:31;102775.63;;;-0.15;77.38
83633;BME280;73595;53.084;6.696;2024-01-07T11:25:02;102826.34;;;0.02;76.60
83633;BME280;73595;53.084;6.696;2024-01-07T11:27:33;102839.53;;;0.22;77.16
83633;BME280;73595;53.084;6.696;2024-01-07T11:30:22;102858.50;;;0.25;75.99
83633;BME280;73595;53.084;6.696;2024-01-07T11:33:06;102859.47;;;0.23;75.86
83633;BME280;73595;53.084;6.696;2024-01-07T11:36:03;102848.97;;;-0.01;77.24
83633;BME280;73595;53.084;6.696;2024-01-07T11:38:31;102854.03;;;0.04;77.68
83633;BME280;73595;53.084;6.696;2024-01-07T11:41:03;102851.69;;;-0.04;78.75
83633;BME280;73595;53.084;6.696;2024-01-07T11:43:33;102870.00;;;0.20;79.09
83633;BME280;73595;53.084;6.696;2024-01-07T11:46:33;102775.19;;;-0.28;78.44
83633;BME280;73595;53.084;6.696;2024-01-07T11:49:37;102856.50;;;0.34;78.41
83633;BME280;73595;53.084;6.696;2024-01-07T11:52:43;102850.03;;;0.44;80.80
83633;BME280;73595;53.084;6.696;2024-01-07T11:55:19;102866.69;;;0.65;80.61
83633;BME280;73595;53.084;6.696;2024-01-07T11:57:45;102865.41;;;0.51;79.41
83633;BME280;73595;53.084;6.696;2024-01-07T12:00:15;102869.81;;;0.49;80.01
83633;BME280;73595;53.084;6.696;2024-01-07T12:05:18;102729.09;;;-0.24;80.98
83633;BME280;73595;53.084;6.696;2024-01-07T12:07:45;102739.16;;;-0.15;80.32
83633;BME280;73595;53.084;6.696;2024-01-07T12:10:21;102873.88;;;0.58;80.14
83633;BME280;73595;53.084;6.696;2024-01-07T12:12:47;102873.47;;;0.69;81.17
83633;BME280;73595;53.084;6.696;2024-01-07T12:15:13;102856.56;;;0.56;81.22
83633;BME280;73595;53.084;6.696;2024-01-07T12:17:39;102831.63;;;0.48;81.12
83633;BME280;73595;53.084;6.696;2024-01-07T12:20:05;102862.25;;;0.67;81.53
83633;BME280;73595;53.084;6.696;2024-01-07T12:22:32;102813.03;;;0.34;81.32
83633;BME280;73595;53.084;6.696;2024-01-07T12:25:05;102862.47;;;0.61;80.77
83633;BME280;73595;53.084;6.696;2024-01-07T12:27:31;102836.63;;;0.54;81.86
83633;BME280;73595;53.084;6.696;2024-01-07T12:29:57;102855.50;;;0.61;80.45
83633;BME280;73595;53.084;6.696;2024-01-07T12:32:26;102858.88;;;0.65;80.45
83633;BME280;73595;53.084;6.696;2024-01-07T12:34:51;102861.84;;;0.54;80.43
83633;BME280;73595;53.084;6.696;2024-01-07T12:37:17;102859.38;;;0.74;81.06
83633;BME280;73595;53.084;6.696;2024-01-07T12:39:42;102854.00;;;0.79;80.83
83633;BME280;73595;53.084;6.696;2024-01-07T12:42:07;102861.38;;;0.91;80.32
83633;BME280;73595;53.084;6.696;2024-01-07T12:44:35;102860.22;;;0.98;80.60
83633;BME280;73595;53.084;6.696;2024-01-07T12:47:01;102866.13;;;1.03;79.23
83633;BME280;73595;53.084;6.696;2024-01-07T12:49:27;102874.59;;;1.08;78.85
83633;BME280;73595;53.084;6.696;2024-01-07T12:51:52;102861.75;;;0.80;78.77